createdAt,value
2022-11-19T00:01:50.877Z,11.53
2022-11-19T00:04:17.807Z,11.51
2022-11-19T00:06:44.841Z,11.47
2022-11-19T00:09:14.427Z,11.36
2022-11-19T00:12:00.185Z,11.51
2022-11-19T00:14:27.236Z,11.23
2022-11-19T00:16:54.124Z,11.15
2022-11-19T00:19:21.178Z,11.21
2022-11-19T00:21:50.252Z,11.31
2022-11-19T00:24:17.164Z,11.34
2022-11-19T00:26:44.597Z,11.37
2022-11-19T00:29:17.932Z,11.28
2022-11-19T00:31:45.246Z,11.39
2022-11-19T00:34:12.438Z,11.27
2022-11-19T00:36:39.459Z,11.38
2022-11-19T00:39:06.608Z,11.39
2022-11-19T00:41:33.487Z,11.48
2022-11-19T00:44:00.331Z,11.21
2022-11-19T00:46:31.364Z,11.33
2022-11-19T00:48:59.894Z,11.34
2022-11-19T00:51:29.462Z,11.36
2022-11-19T00:53:57.070Z,11.38
2022-11-19T00:56:26.511Z,11.35
2022-11-19T00:58:54.445Z,11.34
2022-11-19T01:01:24.702Z,11.32
2022-11-19T01:03:53.713Z,11.14
2022-11-19T01:06:23.262Z,11.38
2022-11-19T01:08:51.818Z,11.33
2022-11-19T01:11:22.617Z,11.35
2022-11-19T01:13:49.795Z,11.26
2022-11-19T01:16:19.684Z,11.14
2022-11-19T01:18:49.061Z,11.30
2022-11-19T01:21:17.622Z,11.34
2022-11-19T01:23:45.359Z,11.34
2022-11-19T01:26:13.583Z,11.39
2022-11-19T01:28:41.076Z,11.48
2022-11-19T01:31:25.134Z,11.52
2022-11-19T01:33:53.492Z,11.57
2022-11-19T01:36:24.025Z,11.61
2022-11-19T01:38:51.900Z,11.67
2022-11-19T01:41:24.616Z,11.50
2022-11-19T01:43:54.393Z,11.28
2022-11-19T01:46:24.054Z,11.35
2022-11-19T01:48:57.341Z,11.37
2022-11-19T01:51:31.387Z,11.34
2022-11-19T01:54:02.055Z,11.25
2022-11-19T01:56:30.314Z,11.25
2022-11-19T01:59:07.582Z,11.35
2022-11-19T02:01:34.870Z,11.26
2022-11-19T02:04:03.286Z,11.22
2022-11-19T02:06:31.630Z,11.10
2022-11-19T02:08:59.244Z,11.22
2022-11-19T02:11:27.558Z,11.19
2022-11-19T02:14:03.207Z,11.13
2022-11-19T02:16:38.068Z,11.07
2022-11-19T02:19:16.983Z,11.01
2022-11-19T02:22:02.531Z,10.94
2022-11-19T02:24:48.809Z,10.88
2022-11-19T02:27:37.512Z,10.82
2022-11-19T02:30:10.114Z,10.68
2022-11-19T02:32:45.787Z,10.56
2022-11-19T02:35:24.314Z,10.54
2022-11-19T02:38:08.453Z,10.50
2022-11-19T02:40:44.070Z,10.49
2022-11-19T02:43:27.281Z,10.40
2022-11-19T02:46:00.142Z,10.41
2022-11-19T02:48:35.874Z,10.33
2022-11-19T02:51:05.193Z,10.36
2022-11-19T02:53:33.396Z,10.25
2022-11-19T02:56:34.482Z,10.10
2022-11-19T02:59:21.356Z,10.25
2022-11-19T03:02:07.988Z,10.30
2022-11-19T03:04:35.447Z,10.17
2022-11-19T03:07:17.199Z,9.97
2022-11-19T03:10:07.156Z,10.08
2022-11-19T03:12:54.611Z,10.06
2022-11-19T03:16:05.928Z,10.03
2022-11-19T03:18:44.867Z,9.84
2022-11-19T03:21:24.485Z,9.87
2022-11-19T03:23:58.195Z,9.89
2022-11-19T03:26:30.738Z,9.84
2022-11-19T03:29:04.410Z,9.70
2022-11-19T03:31:34.789Z,9.78
2022-11-19T03:34:10.421Z,9.61
2022-11-19T03:36:40.992Z,9.80
2022-11-19T03:39:12.988Z,9.59
2022-11-19T03:41:42.046Z,9.68
2022-11-19T03:44:14.633Z,9.75
2022-11-19T03:46:43.973Z,9.63
2022-11-19T03:49:22.885Z,9.63
2022-11-19T03:52:02.669Z,9.50
2022-11-19T03:54:29.779Z,9.54
2022-11-19T03:56:58.932Z,9.51
2022-11-19T03:59:29.885Z,9.44
2022-11-19T04:02:01.500Z,9.34
2022-11-19T04:04:38.338Z,9.41
2022-11-19T04:07:18.573Z,9.40
2022-11-19T04:09:45.653Z,9.01
2022-11-19T04:12:19.305Z,9.26
2022-11-19T04:14:46.619Z,9.24
2022-11-19T04:17:14.005Z,9.30
2022-11-19T04:19:41.380Z,9.23
2022-11-19T04:22:08.494Z,9.16
2022-11-19T04:24:35.568Z,9.22
2022-11-19T04:27:02.483Z,9.29
2022-11-19T04:29:29.467Z,9.30
2022-11-19T04:31:56.372Z,9.22
2022-11-19T04:34:23.525Z,9.24
2022-11-19T04:36:50.500Z,8.94
2022-11-19T04:39:17.559Z,9.29
2022-11-19T04:41:44.649Z,9.27
2022-11-19T04:44:11.540Z,9.27
2022-11-19T04:46:38.684Z,8.85
2022-11-19T04:49:05.733Z,9.32
2022-11-19T04:51:32.757Z,9.29
2022-11-19T04:53:59.625Z,9.29
2022-11-19T04:56:26.541Z,9.26
2022-11-19T04:58:53.361Z,9.26
2022-11-19T05:01:21.809Z,9.24
2022-11-19T05:03:48.997Z,9.27
2022-11-19T05:06:16.074Z,9.29
2022-11-19T05:08:43.484Z,9.17
2022-11-19T05:11:10.784Z,9.22
2022-11-19T05:13:37.886Z,9.10
2022-11-19T05:16:05.068Z,9.14
2022-11-19T05:18:32.367Z,9.12
2022-11-19T05:20:59.595Z,9.09
2022-11-19T05:23:26.937Z,9.12
2022-11-19T05:25:53.902Z,9.11
2022-11-19T05:31:05.950Z,9.03
2022-11-19T05:33:34.497Z,8.98
2022-11-19T05:36:02.293Z,9.01
2022-11-19T05:38:29.300Z,9.06
2022-11-19T05:40:56.576Z,9.01
2022-11-19T05:43:23.706Z,9.01
2022-11-19T05:45:50.763Z,8.98
2022-11-19T05:48:17.668Z,8.92
2022-11-19T05:50:44.524Z,8.86
2022-11-19T05:53:11.795Z,9.04
2022-11-19T05:55:38.911Z,9.09
2022-11-19T05:58:06.024Z,9.05
2022-11-19T06:00:32.874Z,8.85
2022-11-19T06:03:01.171Z,8.96
2022-11-19T06:05:28.683Z,9.00
2022-11-19T06:07:55.627Z,8.93
2022-11-19T06:10:22.707Z,8.99
2022-11-19T06:12:50.407Z,8.76
2022-11-19T06:15:17.425Z,8.97
2022-11-19T06:17:44.493Z,8.97
2022-11-19T06:20:11.831Z,8.93
2022-11-19T06:22:39.961Z,9.04
2022-11-19T06:25:07.933Z,9.07
2022-11-19T06:27:35.589Z,9.14
2022-11-19T06:30:02.901Z,9.22
2022-11-19T06:32:30.724Z,9.21
2022-11-19T06:35:14.486Z,9.25
2022-11-19T06:37:50.490Z,9.28
2022-11-19T06:40:23.551Z,9.32
2022-11-19T06:42:52.477Z,9.30
2022-11-19T06:45:21.587Z,9.30
2022-11-19T06:47:49.458Z,9.34
2022-11-19T06:50:16.712Z,9.39
2022-11-19T06:52:43.776Z,9.39
2022-11-19T06:55:10.873Z,9.42
2022-11-19T06:57:39.020Z,9.42
2022-11-19T07:00:06.895Z,9.41
2022-11-19T07:02:33.973Z,9.42
2022-11-19T07:05:01.258Z,9.38
2022-11-19T07:07:28.389Z,9.47
2022-11-19T07:09:55.429Z,9.38
2022-11-19T07:12:22.341Z,9.47
2022-11-19T07:14:49.416Z,9.46
2022-11-19T07:17:16.352Z,9.40
2022-11-19T07:19:43.651Z,9.44
2022-11-19T07:22:10.912Z,9.61
2022-11-19T07:24:38.170Z,9.59
2022-11-19T07:27:05.099Z,9.71
2022-11-19T07:29:32.329Z,9.69
2022-11-19T07:31:59.475Z,9.73
2022-11-19T07:34:26.318Z,9.88
2022-11-19T07:36:53.447Z,9.94
2022-11-19T07:39:20.834Z,9.97
2022-11-19T07:42:07.039Z,10.11
2022-11-19T07:44:34.946Z,10.14
2022-11-19T07:47:01.898Z,10.26
2022-11-19T07:49:28.998Z,10.35
2022-11-19T07:51:56.025Z,10.47
2022-11-19T07:54:23.193Z,10.49
2022-11-19T07:56:50.456Z,10.67
2022-11-19T07:59:18.131Z,10.76
2022-11-19T08:01:45.362Z,10.90
2022-11-19T08:04:12.367Z,11.03
2022-11-19T08:06:39.382Z,11.17
2022-11-19T08:09:06.505Z,11.39
2022-11-19T08:11:33.623Z,11.45
2022-11-19T08:14:03.922Z,11.48
2022-11-19T08:16:51.911Z,11.55
2022-11-19T08:19:19.404Z,11.81
2022-11-19T08:21:47.301Z,11.83
2022-11-19T08:24:16.307Z,11.79
2022-11-19T08:26:44.326Z,12.03
2022-11-19T08:29:16.588Z,12.03
2022-11-19T08:31:47.279Z,11.85
2022-11-19T08:34:15.483Z,11.99
2022-11-19T08:36:42.589Z,12.03
2022-11-19T08:39:10.094Z,12.04
2022-11-19T08:41:56.136Z,12.15
2022-11-19T08:44:23.339Z,12.23
2022-11-19T08:46:50.743Z,12.24
2022-11-19T08:49:17.951Z,12.27
2022-11-19T08:51:45.839Z,12.36
2022-11-19T08:54:13.388Z,12.47
2022-11-19T08:56:40.637Z,12.59
2022-11-19T08:59:07.576Z,12.75
2022-11-19T09:01:34.429Z,12.97
2022-11-19T09:04:01.913Z,13.10
2022-11-19T09:06:28.872Z,13.14
2022-11-19T09:08:56.087Z,12.98
2022-11-19T09:11:23.230Z,13.00
2022-11-19T09:13:50.499Z,13.10
2022-11-19T09:16:17.681Z,13.28
2022-11-19T09:18:44.983Z,13.22
2022-11-19T09:21:12.864Z,13.14
2022-11-19T09:23:42.709Z,13.38
2022-11-19T09:26:13.791Z,13.40
2022-11-19T09:28:41.757Z,13.37
2022-11-19T09:31:15.088Z,13.41
2022-11-19T09:33:44.364Z,13.39
2022-11-19T09:36:12.524Z,13.51
2022-11-19T09:38:40.905Z,13.60
2022-11-19T09:41:45.411Z,13.63
2022-11-19T09:44:29.956Z,13.69
2022-11-19T09:47:21.571Z,13.88
2022-11-19T09:50:22.292Z,13.88
2022-11-19T09:52:59.293Z,13.86
2022-11-19T09:55:36.788Z,14.08
2022-11-19T09:58:07.490Z,14.09
2022-11-19T10:00:34.609Z,14.02
2022-11-19T10:03:11.493Z,14.34
2022-11-19T10:05:41.482Z,14.57
2022-11-19T10:08:16.537Z,14.44
2022-11-19T10:11:02.563Z,14.60
2022-11-19T10:14:18.254Z,14.89
2022-11-19T10:17:07.884Z,15.17
2022-11-19T10:19:47.373Z,15.05
2022-11-19T10:22:17.280Z,15.23
2022-11-19T10:25:07.585Z,15.40
2022-11-19T10:28:02.128Z,15.40
2022-11-19T10:30:31.147Z,15.44
2022-11-19T10:33:15.002Z,15.55
2022-11-19T10:35:46.193Z,15.39
2022-11-19T10:38:26.859Z,15.70
2022-11-19T10:41:00.222Z,15.76
2022-11-19T10:43:37.081Z,15.86
2022-11-19T10:46:09.218Z,15.77
2022-11-19T10:48:43.341Z,15.70
2022-11-19T10:51:19.331Z,15.80
2022-11-19T10:53:46.434Z,15.82
2022-11-19T10:56:18.108Z,15.93
2022-11-19T10:58:49.203Z,15.72
2022-11-19T11:01:31.533Z,15.77
2022-11-19T11:04:13.385Z,15.65
2022-11-19T11:06:52.572Z,15.70
2022-11-19T11:09:51.969Z,15.76
2022-11-19T11:12:37.527Z,15.79
2022-11-19T11:15:21.768Z,15.82
2022-11-19T11:18:03.737Z,15.78
2022-11-19T11:20:31.626Z,15.93
2022-11-19T11:23:12.185Z,16.03
2022-11-19T11:25:39.629Z,16.26
2022-11-19T11:28:16.420Z,16.08
2022-11-19T11:31:00.173Z,16.20
2022-11-19T11:33:43.409Z,16.34
2022-11-19T11:36:20.563Z,16.25
2022-11-19T11:38:50.703Z,16.12
2022-11-19T11:42:04.359Z,15.86
2022-11-19T11:44:20.834Z,15.73
2022-11-19T11:47:23.288Z,16.15
2022-11-19T11:49:57.644Z,16.29
2022-11-19T11:52:53.453Z,16.50
2022-11-19T11:55:23.400Z,16.67
2022-11-19T11:57:57.779Z,16.74
2022-11-19T12:00:56.037Z,16.86
2022-11-19T12:03:23.834Z,16.67
2022-11-19T12:05:50.832Z,16.63
2022-11-19T12:09:00.416Z,16.59
2022-11-19T12:11:54.178Z,16.53
2022-11-19T12:14:46.251Z,16.60
2022-11-19T12:17:46.574Z,16.57
2022-11-19T12:20:45.047Z,16.55
2022-11-19T12:23:33.697Z,16.59
2022-11-19T12:26:19.550Z,16.68
2022-11-19T12:29:11.586Z,16.69
2022-11-19T12:31:59.961Z,16.77
2022-11-19T12:34:59.176Z,16.79
2022-11-19T12:37:35.323Z,16.85
2022-11-19T12:40:30.057Z,16.63
2022-11-19T12:43:13.484Z,16.66
2022-11-19T12:46:03.189Z,16.72
2022-11-19T12:48:36.661Z,16.63
2022-11-19T12:51:04.608Z,16.56
2022-11-19T12:53:59.075Z,16.77
2022-11-19T12:56:42.424Z,16.79
2022-11-19T12:59:34.386Z,16.56
2022-11-19T13:02:08.041Z,16.41
2022-11-19T13:04:48.481Z,16.64
2022-11-19T13:07:23.230Z,16.64
2022-11-19T13:10:00.586Z,16.68
2022-11-19T13:12:35.482Z,16.64
2022-11-19T13:15:08.719Z,16.47
2022-11-19T13:17:40.724Z,16.56
2022-11-19T13:20:38.061Z,16.64
2022-11-19T13:23:07.222Z,16.69
2022-11-19T13:25:42.687Z,16.79
2022-11-19T13:28:46.349Z,16.83
2022-11-19T13:31:41.762Z,16.63
2022-11-19T13:34:47.921Z,16.70
2022-11-19T13:37:21.696Z,16.48
2022-11-19T13:40:02.080Z,16.62
2022-11-19T13:43:25.043Z,16.63
2022-11-19T13:46:00.292Z,16.49
2022-11-19T13:48:34.262Z,16.56
2022-11-19T13:51:04.352Z,16.50
2022-11-19T13:53:38.028Z,16.53
2022-11-19T13:56:12.290Z,16.47
2022-11-19T13:58:55.040Z,16.34
2022-11-19T14:01:47.627Z,16.38
2022-11-19T14:04:27.250Z,16.33
2022-11-19T14:07:13.241Z,16.17
2022-11-19T14:09:51.848Z,16.26
2022-11-19T14:12:53.210Z,16.36
2022-11-19T14:15:48.081Z,16.24
2022-11-19T14:18:54.690Z,16.22
2022-11-19T14:21:43.479Z,16.26
2022-11-19T14:24:44.797Z,16.26
2022-11-19T14:27:27.739Z,16.29
2022-11-19T14:29:59.235Z,16.27
2022-11-19T14:32:46.336Z,16.15
2022-11-19T14:35:27.230Z,16.08
2022-11-19T14:37:58.022Z,16.17
2022-11-19T14:40:33.993Z,15.97
2022-11-19T14:43:19.762Z,16.06
2022-11-19T14:46:05.261Z,16.00
2022-11-19T14:48:47.452Z,15.74
2022-11-19T14:51:34.668Z,16.11
2022-11-19T14:54:14.041Z,16.04
2022-11-19T14:56:42.900Z,15.86
2022-11-19T14:59:16.215Z,15.94
2022-11-19T15:01:55.668Z,15.85
2022-11-19T15:04:24.014Z,15.82
2022-11-19T15:06:52.558Z,15.56
2022-11-19T15:09:50.692Z,15.49
2022-11-19T15:12:19.870Z,15.27
2022-11-19T15:15:17.233Z,15.24
2022-11-19T15:17:45.340Z,15.23
2022-11-19T15:20:22.507Z,15.17
2022-11-19T15:23:05.994Z,15.23
2022-11-19T15:25:44.704Z,14.99
2022-11-19T15:28:30.617Z,14.90
2022-11-19T15:31:04.857Z,14.82
2022-11-19T15:34:26.090Z,14.95
2022-11-19T15:37:00.994Z,14.77
2022-11-19T15:39:43.312Z,14.87
2022-11-19T15:42:34.614Z,14.85
2022-11-19T15:45:08.235Z,14.92
2022-11-19T15:47:47.128Z,14.76
2022-11-19T15:50:20.852Z,14.38
2022-11-19T15:52:59.638Z,14.69
2022-11-19T15:55:32.056Z,14.69
2022-11-19T15:58:12.669Z,14.67
2022-11-19T16:00:48.336Z,14.72
2022-11-19T16:03:16.503Z,14.71
2022-11-19T16:05:50.249Z,14.86
2022-11-19T16:08:18.020Z,14.86
2022-11-19T16:10:47.989Z,14.93
2022-11-19T16:13:42.385Z,14.99
2022-11-19T16:16:42.793Z,15.15
2022-11-19T16:19:14.271Z,15.08
2022-11-19T16:21:43.449Z,15.07
2022-11-19T16:24:32.489Z,15.07
2022-11-19T16:27:01.460Z,15.02
2022-11-19T16:29:28.708Z,15.09
2022-11-19T16:32:01.998Z,14.93
2022-11-19T16:34:31.688Z,15.14
2022-11-19T16:36:59.743Z,15.24
2022-11-19T16:39:29.692Z,15.31
2022-11-19T16:42:19.810Z,15.21
2022-11-19T16:44:50.094Z,15.06
2022-11-19T16:47:26.281Z,14.93
2022-11-19T16:50:32.458Z,15.05
2022-11-19T16:53:01.147Z,14.69
2022-11-19T16:55:28.981Z,14.90
2022-11-19T16:57:59.253Z,14.88
2022-11-19T17:00:38.376Z,14.57
2022-11-19T17:03:20.938Z,14.64
2022-11-19T17:05:51.973Z,14.65
2022-11-19T17:08:29.199Z,14.40
2022-11-19T17:11:35.226Z,14.64
2022-11-19T17:14:17.708Z,14.50
2022-11-19T17:16:49.272Z,14.52
2022-11-19T17:19:27.152Z,14.31
2022-11-19T17:22:01.856Z,14.43
2022-11-19T17:24:40.555Z,14.48
2022-11-19T17:27:11.619Z,14.38
2022-11-19T17:29:38.717Z,14.26
2022-11-19T17:32:05.999Z,14.27
2022-11-19T17:34:45.043Z,14.41
2022-11-19T17:37:12.416Z,14.34
2022-11-19T17:39:39.400Z,14.36
2022-11-19T17:42:25.080Z,14.42
2022-11-19T17:44:53.639Z,14.40
2022-11-19T17:47:23.606Z,14.18
2022-11-19T17:49:54.459Z,14.07
2022-11-19T17:52:27.656Z,14.24
2022-11-19T17:55:02.742Z,14.27
2022-11-19T17:57:31.316Z,14.10
2022-11-19T17:59:58.178Z,13.91
2022-11-19T18:02:25.310Z,14.03
2022-11-19T18:04:52.353Z,14.07
2022-11-19T18:07:19.531Z,14.13
2022-11-19T18:09:46.676Z,13.85
2022-11-19T18:12:17.104Z,13.89
2022-11-19T18:14:46.376Z,13.99
2022-11-19T18:17:15.085Z,13.88
2022-11-19T18:19:42.319Z,13.76
2022-11-19T18:22:18.781Z,13.78
2022-11-19T18:24:50.342Z,13.66
2022-11-19T18:27:17.234Z,13.55
2022-11-19T18:29:44.699Z,13.52
2022-11-19T18:32:15.251Z,13.49
2022-11-19T18:34:43.457Z,13.52
2022-11-19T18:37:11.111Z,13.19
2022-11-19T18:39:38.252Z,13.32
2022-11-19T18:42:05.741Z,13.10
2022-11-19T18:44:35.534Z,13.24
2022-11-19T18:47:07.708Z,13.07
2022-11-19T18:49:35.318Z,13.18
2022-11-19T18:52:04.297Z,13.09
2022-11-19T18:54:31.349Z,13.06
2022-11-19T18:56:58.686Z,13.07
2022-11-19T18:59:25.616Z,13.06
2022-11-19T19:01:55.679Z,13.07
2022-11-19T19:04:24.228Z,12.96
2022-11-19T19:06:51.599Z,13.14
2022-11-19T19:09:22.013Z,12.90
2022-11-19T19:12:13.587Z,13.19
2022-11-19T19:14:42.219Z,13.17
2022-11-19T19:17:09.963Z,13.22
2022-11-19T19:19:37.319Z,13.26
2022-11-19T19:22:04.888Z,12.98
2022-11-19T19:24:32.649Z,13.20
2022-11-19T19:27:00.982Z,13.19
2022-11-19T19:29:28.208Z,13.22
2022-11-19T19:31:55.390Z,13.26
2022-11-19T19:34:22.701Z,13.41
2022-11-19T19:36:53.257Z,13.25
2022-11-19T19:39:21.235Z,13.18
2022-11-19T19:41:49.472Z,13.24
2022-11-19T19:44:16.915Z,13.30
2022-11-19T19:46:43.887Z,13.37
2022-11-19T19:49:10.919Z,13.23
2022-11-19T19:51:38.075Z,13.01
2022-11-19T19:54:05.024Z,12.85
2022-11-19T19:56:32.884Z,13.02
2022-11-19T19:59:00.998Z,12.98
2022-11-19T20:01:33.153Z,13.16
2022-11-19T20:04:06.021Z,13.12
2022-11-19T20:06:34.557Z,12.96
2022-11-19T20:09:07.021Z,13.04
2022-11-19T20:11:36.155Z,13.21
2022-11-19T20:14:03.651Z,13.20
2022-11-19T20:16:31.956Z,13.03
2022-11-19T20:19:00.396Z,13.05
2022-11-19T20:21:31.737Z,12.99
2022-11-19T20:23:59.108Z,13.11
2022-11-19T20:26:29.398Z,13.08
2022-11-19T20:29:04.631Z,13.13
2022-11-19T20:31:33.493Z,13.08
2022-11-19T20:34:04.279Z,12.05
2022-11-19T20:36:34.010Z,12.35
2022-11-19T20:39:01.576Z,13.09
2022-11-19T20:41:47.959Z,13.20
2022-11-19T20:44:25.686Z,13.17
2022-11-19T20:46:54.195Z,13.21
2022-11-19T20:49:24.730Z,12.93
2022-11-19T20:51:52.717Z,13.00
2022-11-19T20:54:21.489Z,12.89
2022-11-19T20:56:50.022Z,12.96
2022-11-19T20:59:17.441Z,12.95
2022-11-19T21:01:44.876Z,12.95
2022-11-19T21:04:12.119Z,12.75
2022-11-19T21:06:39.863Z,12.87
2022-11-19T21:09:07.078Z,12.76
2022-11-19T21:11:34.734Z,12.56
2022-11-19T21:14:02.397Z,12.59
2022-11-19T21:16:29.961Z,12.71
2022-11-19T21:18:56.912Z,12.63
2022-11-19T21:21:24.698Z,12.70
2022-11-19T21:23:53.449Z,12.84
2022-11-19T21:26:26.090Z,12.72
2022-11-19T21:28:55.782Z,12.67
2022-11-19T21:31:48.761Z,12.39
2022-11-19T21:34:17.905Z,12.68
2022-11-19T21:36:46.710Z,12.69
2022-11-19T21:39:15.030Z,12.67
2022-11-19T21:41:42.226Z,12.64
2022-11-19T21:44:09.990Z,12.52
2022-11-19T21:46:37.083Z,12.61
2022-11-19T21:49:04.912Z,12.74
2022-11-19T21:51:31.829Z,12.70
2022-11-19T21:53:59.332Z,12.79
2022-11-19T21:56:28.024Z,12.88
2022-11-19T21:58:55.179Z,12.86
2022-11-19T22:01:22.263Z,12.61
2022-11-19T22:03:49.588Z,12.85
2022-11-19T22:06:16.828Z,12.88
2022-11-19T22:08:43.945Z,12.73
2022-11-19T22:11:31.241Z,12.94
2022-11-19T22:14:01.573Z,13.42
2022-11-19T22:16:29.191Z,13.46
2022-11-19T22:18:56.070Z,13.52
2022-11-19T22:21:23.326Z,13.54
2022-11-19T22:23:50.269Z,13.60
2022-11-19T22:26:17.734Z,13.55
2022-11-19T22:28:44.663Z,13.72
2022-11-19T22:31:11.782Z,13.75
2022-11-19T22:33:40.810Z,13.62
2022-11-19T22:36:10.566Z,13.79
2022-11-19T22:38:39.034Z,13.79
2022-11-19T22:41:10.229Z,14.15
2022-11-19T22:43:38.760Z,14.26
2022-11-19T22:46:06.975Z,14.71
2022-11-19T22:48:33.964Z,14.91
2022-11-19T22:51:08.904Z,14.85
2022-11-19T22:53:36.915Z,14.91
2022-11-19T22:56:06.635Z,14.84
2022-11-19T22:58:34.467Z,14.93
2022-11-19T23:01:01.616Z,14.87
2022-11-19T23:03:28.964Z,14.84
2022-11-19T23:05:56.321Z,14.96
2022-11-19T23:08:23.156Z,14.96
2022-11-19T23:11:04.282Z,15.01
2022-11-19T23:13:34.205Z,15.00
2022-11-19T23:16:03.142Z,15.01
2022-11-19T23:18:33.576Z,15.00
2022-11-19T23:21:06.130Z,15.11
2022-11-19T23:23:34.613Z,15.24
2022-11-19T23:26:02.796Z,15.37
2022-11-19T23:28:31.497Z,15.20
2022-11-19T23:31:03.716Z,15.06
2022-11-19T23:33:31.030Z,14.98
2022-11-19T23:36:18.972Z,14.66
2022-11-19T23:38:45.992Z,14.69
2022-11-19T23:41:15.504Z,14.74
2022-11-19T23:43:42.886Z,14.96
2022-11-19T23:46:16.103Z,15.00
2022-11-19T23:48:44.883Z,14.93
2022-11-19T23:51:14.187Z,15.01
2022-11-19T23:53:42.311Z,14.93
2022-11-19T23:56:10.203Z,15.02
2022-11-19T23:58:37.580Z,15.05
